Nain, Canada
Current Conditions -  °F | °C
As of 10:00 AM on Saturday 22 Nov 2014 (Local Time) from CYDP Reporting Station
Clear Clear  
Wind Chill: -2°   Ceiling: Unl
Heat Index: 16°   Visibility: 15mi
Dew Point:   Wind: 22mph
Humidity: 53%   Direction: 290°WNW
Pressure: 29.44"   Gusts: NA
Location:  56.55°N, 61.68°W
Report Text: CYDP 221400Z 29019KT 15SM SKC M09/M17 A2944 RMK SLP971
Loading
Personal Weather Stations






























Interactive Weather Map New forecast layout! Learn more

10-Day Weather Forecast

Advertisements
Track Severe Weather on mobile